createdAt,value
2023-05-19T00:03:13.131Z,100158.63
2023-05-19T00:08:27.838Z,100165.97
2023-05-19T00:13:29.790Z,100126.31
2023-05-19T00:18:34.671Z,100147.16
2023-05-19T00:23:36.919Z,100172.41
2023-05-19T00:28:38.655Z,100142.69
2023-05-19T00:33:52.113Z,100133.59
2023-05-19T00:38:53.738Z,100159.31
2023-05-19T00:44:04.230Z,100146.59
2023-05-19T00:49:07.225Z,100127.81
2023-05-19T00:54:09.426Z,100156.22
2023-05-19T00:59:13.241Z,100153.75
2023-05-19T01:04:21.859Z,100170.94
2023-05-19T01:09:23.948Z,100151.50
2023-05-19T01:14:27.898Z,100156.97
2023-05-19T01:19:41.424Z,100154.97
2023-05-19T01:25:15.033Z,100171.63
2023-05-19T01:30:34.698Z,100191.41
2023-05-19T01:35:39.098Z,100198.84
2023-05-19T01:40:44.394Z,100186.59
2023-05-19T01:45:51.564Z,100193.56
2023-05-19T01:50:57.374Z,100194.78
2023-05-19T01:55:59.318Z,100189.75
2023-05-19T02:01:19.331Z,100178.75
2023-05-19T02:06:38.676Z,100199.31
2023-05-19T02:11:46.662Z,100158.22
2023-05-19T02:16:49.013Z,100202.16
2023-05-19T02:21:50.739Z,100211.81
2023-05-19T02:26:53.747Z,100229.44
2023-05-19T02:32:00.155Z,100237.72
2023-05-19T02:37:02.148Z,100231.59
2023-05-19T02:42:11.658Z,100211.63
2023-05-19T02:47:13.899Z,100217.84
2023-05-19T02:52:16.624Z,100221.38
2023-05-19T02:57:18.289Z,100239.88
2023-05-19T03:02:34.261Z,100205.94
2023-05-19T03:07:39.193Z,100215.50
2023-05-19T03:12:42.871Z,100195.00
2023-05-19T03:17:44.792Z,100213.78
2023-05-19T03:22:49.004Z,100226.69
2023-05-19T03:27:50.785Z,100204.81
2023-05-19T03:33:09.572Z,100200.53
2023-05-19T03:38:11.334Z,100226.84
2023-05-19T03:48:31.424Z,100253.34
2023-05-19T03:53:40.455Z,100234.94
2023-05-19T03:58:53.694Z,100283.97
2023-05-19T04:04:06.470Z,100258.31
2023-05-19T04:09:24.142Z,100264.53
2023-05-19T04:14:32.858Z,100272.31
2023-05-19T04:19:55.405Z,100259.53
2023-05-19T04:25:08.348Z,100284.94
2023-05-19T04:30:23.283Z,100257.78
2023-05-19T04:35:26.166Z,100288.41
2023-05-19T04:40:35.670Z,100280.47
2023-05-19T04:45:45.434Z,100311.69
2023-05-19T04:50:51.841Z,100290.97
2023-05-19T04:55:53.569Z,100329.53
2023-05-19T05:01:03.553Z,100319.22
2023-05-19T05:06:07.740Z,100342.25
2023-05-19T05:16:28.422Z,100366.78
2023-05-19T05:21:35.747Z,100371.56
2023-05-19T05:26:44.876Z,100372.97
2023-05-19T05:31:48.439Z,100381.59
2023-05-19T05:36:58.101Z,100391.56
2023-05-19T05:41:59.779Z,100374.53
2023-05-19T05:47:02.737Z,100397.25
2023-05-19T05:52:06.532Z,100382.47
2023-05-19T05:57:34.880Z,100384.53
2023-05-19T06:02:36.901Z,100392.63
2023-05-19T06:07:45.706Z,100406.00
2023-05-19T06:12:55.819Z,100389.31
2023-05-19T06:18:01.412Z,100392.66
2023-05-19T06:23:10.407Z,100432.06
2023-05-19T06:28:12.137Z,100430.91
2023-05-19T06:33:16.755Z,100421.97
2023-05-19T06:38:21.457Z,100386.53
2023-05-19T06:43:26.108Z,100380.72
2023-05-19T06:48:35.505Z,100405.72
2023-05-19T06:53:39.921Z,100437.41
2023-05-19T06:58:41.715Z,100411.22
2023-05-19T07:03:56.672Z,100407.88
2023-05-19T07:09:05.543Z,100380.06
2023-05-19T07:14:09.437Z,100385.56
2023-05-19T07:19:13.665Z,100350.69
2023-05-19T07:24:25.024Z,100357.16
2023-05-19T07:29:29.192Z,100387.22
2023-05-19T07:34:33.421Z,100331.47
2023-05-19T07:39:40.075Z,100331.81
2023-05-19T07:44:44.598Z,100346.69
2023-05-19T07:49:46.287Z,100318.03
2023-05-19T07:54:52.618Z,100337.00
2023-05-19T08:00:10.048Z,100320.88
2023-05-19T08:05:15.491Z,100328.00
2023-05-19T08:10:32.293Z,100312.06
2023-05-19T08:15:34.204Z,100319.06
2023-05-19T08:20:51.372Z,100264.78
2023-05-19T08:26:03.021Z,100295.22
2023-05-19T08:31:28.889Z,100281.97
2023-05-19T08:36:30.793Z,100256.22
2023-05-19T08:41:39.374Z,100261.63
2023-05-19T08:46:55.777Z,100263.09
2023-05-19T08:52:25.356Z,100227.56
2023-05-19T08:57:33.956Z,100227.13
2023-05-19T09:02:43.390Z,100230.84
2023-05-19T09:08:01.410Z,100219.84
2023-05-19T09:13:06.498Z,100194.69
2023-05-19T09:18:34.523Z,100201.72
2023-05-19T09:23:36.351Z,100183.25
2023-05-19T09:28:42.804Z,100163.19
2023-05-19T09:34:29.700Z,100149.84
2023-05-19T09:39:32.917Z,100151.78
2023-05-19T09:45:01.557Z,100126.75
2023-05-19T09:50:04.908Z,100146.03
2023-05-19T09:55:10.684Z,100134.84
2023-05-19T10:01:52.776Z,100081.00
2023-05-19T10:06:09.046Z,100094.97
2023-05-19T10:11:29.246Z,100115.19
2023-05-19T10:16:42.821Z,100121.38
2023-05-19T10:21:52.505Z,100111.84
2023-05-19T10:27:31.326Z,100083.88
2023-05-19T10:32:40.792Z,100085.69
2023-05-19T10:38:18.001Z,100105.03
2023-05-19T10:49:36.176Z,100125.22
2023-05-19T10:54:16.835Z,100107.13
2023-05-19T10:59:42.177Z,100083.84
2023-05-19T11:06:50.203Z,100133.97
2023-05-19T11:12:15.512Z,100123.81
2023-05-19T11:17:21.272Z,100125.06
2023-05-19T11:22:34.036Z,100093.31
2023-05-19T11:27:38.649Z,100056.16
2023-05-19T11:32:42.648Z,100056.38
2023-05-19T11:37:58.336Z,100049.69
2023-05-19T11:43:03.498Z,100078.56
2023-05-19T11:48:06.711Z,100091.53
2023-05-19T11:53:12.149Z,100055.72
2023-05-19T11:58:42.255Z,100064.09
2023-05-19T12:04:04.142Z,100061.34
2023-05-19T12:09:22.525Z,100056.19
2023-05-19T12:14:29.718Z,100042.75
2023-05-19T12:19:32.950Z,100070.38
2023-05-19T12:24:49.924Z,100059.78
2023-05-19T12:30:01.823Z,100079.47
2023-05-19T12:35:12.527Z,100050.63
2023-05-19T12:40:17.785Z,100081.50
2023-05-19T12:45:22.856Z,100093.22
2023-05-19T12:50:56.618Z,100064.25
2023-05-19T12:56:00.759Z,100061.84
2023-05-19T13:01:20.432Z,100021.47
2023-05-19T13:06:29.449Z,100040.75
2023-05-19T13:11:38.796Z,100031.81
2023-05-19T13:16:47.067Z,100020.00
2023-05-19T13:21:51.277Z,100003.63
2023-05-19T13:31:58.535Z,100014.47
2023-05-19T13:37:11.695Z,99986.78
2023-05-19T13:42:13.401Z,99979.06
2023-05-19T13:58:47.242Z,100000.56
2023-05-19T14:03:49.541Z,99982.47
2023-05-19T14:08:51.293Z,100011.44
2023-05-19T14:13:53.240Z,99993.47
2023-05-19T14:18:55.024Z,100006.34
2023-05-19T14:23:56.990Z,99987.47
2023-05-19T14:28:58.681Z,99991.03
2023-05-19T14:34:00.354Z,99986.69
2023-05-19T14:39:02.208Z,99975.03
2023-05-19T14:44:03.982Z,99950.44
2023-05-19T14:49:06.592Z,99980.97
2023-05-19T14:54:08.276Z,99973.28
2023-05-19T14:59:10.275Z,99990.97
2023-05-19T15:04:11.978Z,99964.22
2023-05-19T15:09:14.994Z,99981.91
2023-05-19T15:14:16.635Z,99944.16
2023-05-19T15:19:18.647Z,99978.88
2023-05-19T15:24:20.361Z,99966.63
2023-05-19T15:29:22.004Z,99982.63
2023-05-19T15:34:23.641Z,99971.34
2023-05-19T15:39:25.704Z,99953.97
2023-05-19T15:44:28.997Z,99949.31
2023-05-19T15:49:30.968Z,99952.66
2023-05-19T15:54:32.546Z,99937.16
2023-05-19T15:59:34.142Z,99944.50
2023-05-19T16:04:35.851Z,99951.56
2023-05-19T16:09:37.451Z,99936.03
2023-05-19T16:14:39.104Z,99902.41
2023-05-19T16:19:40.787Z,99924.31
2023-05-19T16:24:42.449Z,99926.16
2023-05-19T16:29:44.104Z,99944.16
2023-05-19T16:34:45.815Z,99943.53
2023-05-19T16:39:48.456Z,99913.44
2023-05-19T16:44:50.061Z,99912.66
2023-05-19T16:49:51.851Z,99878.06
2023-05-19T16:54:53.480Z,99939.41
2023-05-19T16:59:55.164Z,99899.25
2023-05-19T17:04:56.696Z,99934.31
2023-05-19T17:09:58.314Z,99948.19
2023-05-19T17:14:59.996Z,99874.00
2023-05-19T17:20:02.147Z,99919.38
2023-05-19T17:25:04.017Z,99940.22
2023-05-19T17:30:07.054Z,99904.69
2023-05-19T17:35:08.830Z,99927.00
2023-05-19T17:40:11.196Z,99933.88
2023-05-19T17:45:12.812Z,99947.31
2023-05-19T17:50:14.502Z,99897.06
2023-05-19T17:55:16.509Z,99883.28
2023-05-19T18:00:18.703Z,99885.56
2023-05-19T18:05:20.831Z,99900.00
2023-05-19T18:10:25.756Z,99908.94
2023-05-19T18:15:27.475Z,99885.41
2023-05-19T18:20:31.030Z,99862.41
2023-05-19T18:25:32.839Z,99861.72
2023-05-19T18:30:34.828Z,99887.16
2023-05-19T18:35:37.271Z,99849.34
2023-05-19T18:40:43.522Z,99853.56
2023-05-19T18:45:48.371Z,99830.34
2023-05-19T18:50:50.046Z,99840.84
2023-05-19T18:55:52.043Z,99841.56
2023-05-19T19:00:56.903Z,99843.09
2023-05-19T19:05:59.972Z,99876.22
2023-05-19T19:11:01.816Z,99844.25
2023-05-19T19:16:04.048Z,99859.72
2023-05-19T19:21:06.059Z,99849.84
2023-05-19T19:26:09.338Z,99848.25
2023-05-19T19:31:10.986Z,99829.59
2023-05-19T19:36:12.665Z,99855.50
2023-05-19T19:41:14.226Z,99858.53
2023-05-19T19:46:15.941Z,99837.97
2023-05-19T19:51:17.668Z,99835.91
2023-05-19T19:56:19.316Z,99859.84
2023-05-19T20:01:23.482Z,99823.63
2023-05-19T20:06:25.610Z,99847.16
2023-05-19T20:11:27.356Z,99830.00
2023-05-19T20:16:29.120Z,99832.72
2023-05-19T20:21:30.805Z,99846.66
2023-05-19T20:26:32.492Z,99852.84
2023-05-19T20:31:34.178Z,99863.75
2023-05-19T20:36:36.465Z,99879.25
2023-05-19T20:41:38.191Z,99873.53
2023-05-19T20:46:39.773Z,99887.16
2023-05-19T20:51:41.337Z,99892.22
2023-05-19T20:56:43.072Z,99874.59
2023-05-19T21:01:46.023Z,99857.66
2023-05-19T21:06:47.726Z,99877.81
2023-05-19T21:11:49.565Z,99878.81
2023-05-19T21:16:54.372Z,99880.44
2023-05-19T21:21:56.993Z,99882.50
2023-05-19T21:26:58.568Z,99844.34
2023-05-19T21:32:00.141Z,99867.22
2023-05-19T21:37:01.784Z,99862.56
2023-05-19T21:42:03.987Z,99870.50
2023-05-19T21:47:05.752Z,99849.88
2023-05-19T21:52:07.928Z,99872.22
2023-05-19T21:57:11.199Z,99837.19
2023-05-19T22:02:12.944Z,99882.56
2023-05-19T22:07:14.550Z,99900.78
2023-05-19T22:12:16.417Z,99872.03
2023-05-19T22:17:18.138Z,99851.84
2023-05-19T22:22:19.815Z,99894.16
2023-05-19T22:27:21.503Z,99857.69
2023-05-19T22:32:23.150Z,99894.38
2023-05-19T22:37:24.816Z,99892.09
2023-05-19T22:42:26.945Z,99890.84
2023-05-19T22:47:29.748Z,99897.50
2023-05-19T22:52:31.410Z,99867.97
2023-05-19T22:57:33.094Z,99868.00
2023-05-19T23:02:34.721Z,99852.69
2023-05-19T23:07:36.407Z,99887.75
2023-05-19T23:12:38.057Z,99899.44
2023-05-19T23:17:39.668Z,99889.03
2023-05-19T23:22:41.419Z,99916.97
2023-05-19T23:27:43.060Z,99940.34
2023-05-19T23:32:44.755Z,99944.28
2023-05-19T23:37:46.481Z,99941.34
2023-05-19T23:42:48.101Z,99916.69
2023-05-19T23:47:49.710Z,99921.31
2023-05-19T23:52:51.409Z,99931.31
2023-05-19T23:57:53.110Z,99931.09
